Time;durP1;ratioP1;P1;durP2;ratioP2;P2;SDS_P1;SDS_P2;PMS_P1;PMS_P2;Temp;Humidity;BMP_temperature;BMP_pressure;BME280_temperature;BME280_humidity;BME280_pressure;Samples;Min_cycle;Max_cycle;Signal;HPM_P1;HPM_P2
2021/07/17 00:01:35;;;;;;;22.25;8.98;;;;;;;17.39;70.25;101994.38;5072473;28;20052;-62
2021/07/17 00:04:04;;;;;;;21.00;8.53;;;;;;;17.50;69.87;101994.91;5073030;28;20041;-62
2021/07/17 00:06:48;;;;;;;22.40;9.45;;;;;;;17.12;71.75;101996.69;5072857;28;20056;-64
2021/07/17 00:09:16;;;;;;;24.50;8.63;;;;;;;16.99;72.52;101992.88;5072939;28;20057;-63
2021/07/17 00:11:43;;;;;;;23.65;9.20;;;;;;;16.84;73.10;101994.16;5055092;28;20586;-62
2021/07/17 00:14:10;;;;;;;23.80;9.40;;;;;;;16.73;73.74;101994.81;5073098;28;20048;-63
2021/07/17 00:16:38;;;;;;;19.05;8.60;;;;;;;16.86;73.14;102004.97;5073653;28;20044;-62
2021/07/17 00:19:05;;;;;;;22.83;10.10;;;;;;;16.75;73.74;102007.22;5076305;28;20053;-62
2021/07/17 00:21:32;;;;;;;22.08;8.85;;;;;;;16.69;74.24;102005.75;5076001;28;20059;-62
2021/07/17 00:23:59;;;;;;;21.77;8.52;;;;;;;16.84;73.89;102007.28;5076415;28;20385;-62
2021/07/17 00:26:27;;;;;;;23.85;9.13;;;;;;;17.00;73.57;101999.28;5058491;28;20048;-63
2021/07/17 00:28:55;;;;;;;29.58;11.18;;;;;;;17.08;72.62;101999.28;5076376;28;20044;-63
2021/07/17 00:31:22;;;;;;;27.00;9.95;;;;;;;16.83;73.82;102000.88;5076015;28;20048;-62
2021/07/17 00:33:50;;;;;;;29.13;10.93;;;;;;;16.97;73.28;101992.38;5057838;28;20051;-63
2021/07/17 00:36:17;;;;;;;26.42;9.68;;;;;;;16.80;74.03;102000.72;5075927;28;20052;-62
2021/07/17 00:38:44;;;;;;;26.52;10.52;;;;;;;16.93;73.56;102001.72;5076013;28;20048;-62
2021/07/17 00:41:11;;;;;;;22.67;8.80;;;;;;;16.96;73.77;102001.06;5075884;28;20063;-63
2021/07/17 00:43:39;;;;;;;24.70;10.35;;;;;;;17.25;72.57;101996.50;5075825;28;20075;-62
2021/07/17 00:46:06;;;;;;;23.58;9.95;;;;;;;17.11;72.99;102004.19;5076455;28;20060;-63
2021/07/17 00:48:34;;;;;;;25.27;9.95;;;;;;;16.75;74.40;101992.53;5056642;28;20052;-63
2021/07/17 00:51:01;;;;;;;27.48;10.23;;;;;;;16.57;75.30;101994.44;5075696;28;20060;-63
2021/07/17 00:53:29;;;;;;;25.05;9.85;;;;;;;16.73;74.91;102003.97;5075427;28;20103;-63
2021/07/17 00:55:56;;;;;;;24.67;10.02;;;;;;;16.88;74.24;101989.59;5079452;28;20447;-62
2021/07/17 00:58:31;;;;;;;29.55;10.38;;;;;;;16.73;74.80;101997.59;5077664;28;20040;-63
2021/07/17 01:00:58;;;;;;;28.80;10.45;;;;;;;16.66;75.37;101991.69;5095299;28;20498;-62
2021/07/17 01:03:27;;;;;;;24.90;10.25;;;;;;;16.88;74.71;101999.09;5095040;28;20052;-63
2021/07/17 01:05:55;;;;;;;23.25;10.35;;;;;;;16.76;74.77;101999.72;5095436;28;20056;-63
2021/07/17 01:08:23;;;;;;;26.20;10.60;;;;;;;16.86;74.22;102007.75;5095546;28;20114;-63
2021/07/17 01:10:50;;;;;;;24.67;9.82;;;;;;;16.94;74.28;102011.69;5095267;28;20048;-63
2021/07/17 01:13:17;;;;;;;21.83;10.05;;;;;;;17.00;74.20;102005.66;5095229;28;20056;-63
2021/07/17 01:15:45;;;;;;;21.65;9.65;;;;;;;17.03;73.74;102001.41;5095434;28;20059;-62
2021/07/17 01:18:12;;;;;;;30.30;11.15;;;;;;;16.79;75.22;102004.63;5076889;28;20067;-63
2021/07/17 01:20:41;;;;;;;25.73;10.98;;;;;;;16.63;75.62;101997.91;5095245;28;20048;-62
2021/07/17 01:23:08;;;;;;;22.38;10.05;;;;;;;16.41;76.76;102011.84;5095051;28;20440;-62
2021/07/17 01:25:36;;;;;;;25.10;10.88;;;;;;;16.36;77.26;102009.19;5095125;28;20048;-62
2021/07/17 01:28:03;;;;;;;23.52;10.00;;;;;;;16.52;76.83;102002.94;5095020;28;20054;-62
2021/07/17 01:30:33;;;;;;;23.25;10.85;;;;;;;16.77;75.72;102004.16;5095248;28;20048;-63
2021/07/17 01:33:00;;;;;;;26.33;10.77;;;;;;;16.65;75.88;102009.50;5076562;28;20075;-62
2021/07/17 01:35:28;;;;;;;25.10;11.27;;;;;;;16.29;77.08;101994.94;5076926;28;20044;-62
2021/07/17 01:37:55;;;;;;;27.15;10.98;;;;;;;16.57;76.49;102000.00;5095015;28;20052;-62
2021/07/17 01:40:23;;;;;;;25.33;11.48;;;;;;;16.52;76.55;101997.38;5094864;28;20055;-63
2021/07/17 01:42:53;;;;;;;25.33;10.82;;;;;;;16.47;76.72;101993.91;5094300;28;20044;-63
2021/07/17 01:45:24;;;;;;;26.08;10.95;;;;;;;16.29;77.71;101987.44;5094511;28;20056;-64
2021/07/17 01:47:52;;;;;;;26.38;11.23;;;;;;;16.33;77.69;101991.22;5094261;28;20048;-62
2021/07/17 01:50:19;;;;;;;21.98;10.85;;;;;;;16.50;76.84;101987.69;5094994;28;20043;-63
2021/07/17 01:52:50;;;;;;;25.58;11.02;;;;;;;16.49;76.59;101986.88;5095033;28;20079;-62
2021/07/17 01:55:17;;;;;;;25.95;10.35;;;;;;;16.36;77.48;102003.63;5075939;28;20083;-63
2021/07/17 01:57:46;;;;;;;28.95;11.07;;;;;;;16.50;77.10;101987.69;5075401;28;20052;-63
2021/07/17 02:00:14;;;;;;;30.02;11.20;;;;;;;16.54;76.65;101983.13;5074145;28;20411;-63
2021/07/17 02:02:42;;;;;;;26.38;11.32;;;;;;;16.68;76.03;101986.63;5073566;28;20055;-63
2021/07/17 02:05:11;;;;;;;24.02;11.15;;;;;;;16.53;76.29;101990.66;5073697;28;20084;-63
2021/07/17 02:07:38;;;;;;;31.20;11.95;;;;;;;16.45;77.01;101993.38;5073874;28;20411;-62
2021/07/17 02:10:14;;;;;;;26.45;11.15;;;;;;;16.51;76.91;101994.91;5073855;28;20045;-62
2021/07/17 02:13:01;;;;;;;23.02;11.75;;;;;;;16.56;76.67;101997.53;5073895;28;20067;-63
2021/07/17 02:15:32;;;;;;;27.85;12.30;;;;;;;16.20;78.23;101991.28;5074019;28;20052;-62
2021/07/17 02:18:00;;;;;;;29.85;11.65;;;;;;;16.08;79.36;102000.25;5073808;28;20365;-62
2021/07/17 02:20:27;;;;;;;28.40;12.15;;;;;;;16.34;78.14;101995.63;5073792;28;20060;-62
2021/07/17 02:22:55;;;;;;;33.90;11.63;;;;;;;16.10;78.96;101997.13;5067977;28;20049;-62
2021/07/17 02:25:22;;;;;;;32.50;13.18;;;;;;;16.02;79.44;102000.72;5066449;28;20052;-64
2021/07/17 02:27:50;;;;;;;30.50;12.32;;;;;;;15.77;81.14;101991.06;5055609;28;20040;-62
2021/07/17 02:30:17;;;;;;;30.77;12.10;;;;;;;15.94;80.22;102002.28;5055014;28;20048;-63
2021/07/17 02:32:45;;;;;;;29.85;12.85;;;;;;;16.12;79.81;101997.66;5077944;28;20382;-63
2021/07/17 02:35:12;;;;;;;30.25;13.05;;;;;;;15.86;80.86;101996.69;5093556;28;20059;-63
2021/07/17 02:37:40;;;;;;;27.48;12.93;;;;;;;15.78;81.40;101993.53;5068618;28;20048;-63
2021/07/17 02:40:08;;;;;;;25.88;12.07;;;;;;;15.95;80.70;101990.06;5067683;28;20060;-62
2021/07/17 02:42:36;;;;;;;28.42;12.45;;;;;;;16.08;79.95;101999.41;5053848;28;20060;-62
2021/07/17 02:45:06;;;;;;;31.27;13.05;;;;;;;15.82;80.78;101996.50;5062040;28;20423;-62
2021/07/17 02:47:34;;;;;;;28.17;13.90;;;;;;;15.71;81.83;101998.72;5086636;28;20055;-63
2021/07/17 02:50:02;;;;;;;29.88;12.30;;;;;;;16.04;80.31;101995.66;5093426;28;20048;-63
2021/07/17 02:52:30;;;;;;;29.90;12.68;;;;;;;16.20;79.26;101989.34;5075157;28;20056;-63
2021/07/17 02:54:57;;;;;;;24.70;12.52;;;;;;;16.26;78.86;101996.41;5093374;28;20063;-61
2021/07/17 02:57:25;;;;;;;31.35;13.20;;;;;;;16.13;79.22;101994.53;5077195;28;20415;-62
2021/07/17 02:59:52;;;;;;;25.10;11.82;;;;;;;16.27;79.01;101980.53;5073583;28;20098;-63
2021/07/17 03:02:19;;;;;;;29.77;13.55;;;;;;;16.09;79.16;101987.97;5073043;28;20380;-62
2021/07/17 03:04:47;;;;;;;35.50;13.77;;;;;;;15.77;81.47;102000.25;5073422;28;20040;-63
2021/07/17 03:07:14;;;;;;;27.45;13.93;;;;;;;15.62;82.43;101997.03;5073733;28;20052;-63
2021/07/17 03:09:41;;;;;;;32.78;14.52;;;;;;;15.61;82.90;101993.44;5073423;28;20491;-63
2021/07/17 03:12:09;;;;;;;30.98;14.63;;;;;;;15.47;83.45;102003.78;5073281;28;20056;-62
2021/07/17 03:14:36;;;;;;;34.38;13.98;;;;;;;15.66;83.28;101998.84;5073321;28;20052;-62
2021/07/17 03:17:03;;;;;;;29.65;12.80;;;;;;;16.01;81.30;102001.84;5073734;28;20060;-63
2021/07/17 03:19:30;;;;;;;30.02;13.00;;;;;;;16.25;79.55;101993.97;5073014;28;20055;-62
2021/07/17 03:21:58;;;;;;;31.52;14.20;;;;;;;15.82;81.35;101992.91;5073150;28;20059;-63
2021/07/17 03:24:26;;;;;;;32.92;14.07;;;;;;;15.84;81.18;101991.44;5073142;28;20052;-62
2021/07/17 03:26:53;;;;;;;33.70;14.18;;;;;;;15.86;81.71;101999.47;5072527;28;20075;-63
2021/07/17 03:29:20;;;;;;;38.60;14.32;;;;;;;16.01;81.12;101996.28;5073316;28;20052;-63
2021/07/17 03:31:47;;;;;;;33.47;14.63;;;;;;;15.77;81.89;101999.41;5072825;28;20040;-63
2021/07/17 03:34:15;;;;;;;31.88;13.40;;;;;;;15.89;81.38;101996.03;5054561;28;20052;-63
2021/07/17 03:36:42;;;;;;;38.13;14.88;;;;;;;15.85;81.44;102006.16;5072854;28;20048;-63
2021/07/17 03:39:10;;;;;;;36.15;14.50;;;;;;;15.54;82.62;102001.38;5073106;28;20052;-63
2021/07/17 03:41:37;;;;;;;31.00;14.32;;;;;;;15.95;81.95;101998.38;5073112;28;20054;-64
2021/07/17 03:44:06;;;;;;;31.02;14.02;;;;;;;15.92;81.48;102000.97;5073373;28;20059;-62
2021/07/17 03:46:34;;;;;;;36.83;14.55;;;;;;;16.06;81.16;101996.13;5073495;28;20041;-62
2021/07/17 03:49:02;;;;;;;29.05;15.15;;;;;;;16.08;80.79;101997.47;5038114;28;20415;-64
2021/07/17 03:51:30;;;;;;;31.45;14.10;;;;;;;16.16;80.40;101990.31;5073358;28;20040;-63
2021/07/17 03:53:58;;;;;;;29.48;15.25;;;;;;;15.99;80.46;101996.59;5076359;28;20056;-64
2021/07/17 03:56:25;;;;;;;33.42;15.70;;;;;;;15.60;82.54;101990.97;5050390;28;20051;-63
2021/07/17 03:58:52;;;;;;;32.00;15.27;;;;;;;15.57;83.17;101997.13;5097049;28;20059;-63
2021/07/17 04:01:19;;;;;;;31.73;14.77;;;;;;;15.77;82.67;101994.69;5096869;28;20051;-63
2021/07/17 04:03:48;;;;;;;30.40;15.20;;;;;;;15.99;81.75;102004.13;5096515;28;20052;-63
2021/07/17 04:06:15;;;;;;;31.23;15.30;;;;;;;16.10;80.90;102005.47;5096718;28;20059;-63
2021/07/17 04:08:43;;;;;;;37.50;15.88;;;;;;;15.91;81.12;102002.94;5096528;28;20052;-64
2021/07/17 04:11:10;;;;;;;40.08;15.75;;;;;;;15.62;83.07;102006.16;5096828;28;20040;-63
2021/07/17 04:13:38;;;;;;;31.58;15.65;;;;;;;15.53;82.87;102010.81;5078382;28;20059;-63
2021/07/17 04:16:05;;;;;;;34.72;15.68;;;;;;;15.82;82.45;102007.63;5078317;28;20059;-63
2021/07/17 04:18:32;;;;;;;38.85;16.15;;;;;;;15.68;82.61;102013.25;5061620;28;20384;-62
2021/07/17 04:21:00;;;;;;;37.83;16.13;;;;;;;15.68;82.77;102012.41;5096634;28;20241;-63
2021/07/17 04:23:27;;;;;;;42.22;15.95;;;;;;;15.27;84.77;102012.53;5096410;28;20052;-63
2021/07/17 04:25:54;;;;;;;29.88;15.68;;;;;;;15.46;84.37;102013.22;5096642;28;20071;-63
2021/07/17 04:28:22;;;;;;;37.30;15.88;;;;;;;15.76;82.84;102006.91;5096439;28;20055;-63
2021/07/17 04:30:49;;;;;;;36.10;15.88;;;;;;;15.88;82.13;102008.31;5096326;28;20044;-63
2021/07/17 04:33:17;;;;;;;36.88;16.25;;;;;;;15.64;82.70;102008.63;5095859;28;20052;-63
2021/07/17 04:35:44;;;;;;;36.50;16.48;;;;;;;15.50;84.24;102017.03;5095602;28;20078;-62
2021/07/17 04:38:11;;;;;;;38.92;17.27;;;;;;;15.75;82.98;102016.41;5096187;28;20056;-63
2021/07/17 04:40:39;;;;;;;43.30;16.48;;;;;;;15.57;83.41;102008.25;5095239;28;20371;-62
2021/07/17 04:43:06;;;;;;;35.05;15.80;;;;;;;15.74;83.15;102005.63;5096009;28;20052;-63
2021/07/17 04:45:33;;;;;;;36.33;16.67;;;;;;;15.87;82.42;102010.25;5096293;28;20044;-63
2021/07/17 04:48:04;;;;;;;33.17;16.13;;;;;;;15.90;81.84;102009.63;5095762;28;20048;-62
2021/07/17 04:50:32;;;;;;;39.45;16.08;;;;;;;15.61;83.26;102017.59;5095968;28;20048;-62
2021/07/17 04:53:00;;;;;;;37.15;16.02;;;;;;;15.63;83.51;102007.81;5095677;28;20055;-63
2021/07/17 04:55:27;;;;;;;38.97;16.55;;;;;;;15.61;82.83;102007.31;5095382;28;20060;-63
2021/07/17 04:57:54;;;;;;;38.13;16.33;;;;;;;15.58;83.58;102018.22;5053744;28;20060;-63
2021/07/17 05:00:21;;;;;;;35.17;16.25;;;;;;;15.53;83.31;102021.13;5037910;28;20049;-63
2021/07/17 05:02:50;;;;;;;40.38;16.52;;;;;;;15.42;84.91;102026.13;5037082;28;20131;-62
2021/07/17 05:05:19;;;;;;;40.80;16.50;;;;;;;15.32;84.63;102028.28;5055269;28;20072;-63
2021/07/17 05:07:47;;;;;;;36.20;17.60;;;;;;;15.43;84.30;102036.06;5055253;28;20451;-62
2021/07/17 05:10:17;;;;;;;35.08;15.80;;;;;;;15.66;83.74;102023.03;5055001;28;20053;-63
2021/07/17 05:12:44;;;;;;;39.60;16.00;;;;;;;15.64;83.21;102033.63;5055169;28;20464;-62
2021/07/17 05:15:13;;;;;;;44.70;16.77;;;;;;;15.70;83.16;102033.19;5055275;28;20499;-62
2021/07/17 05:17:40;;;;;;;36.80;16.58;;;;;;;15.45;83.92;102035.75;5037199;28;20500;-62
2021/07/17 05:20:08;;;;;;;36.15;15.63;;;;;;;15.59;84.14;102034.56;5055372;28;20590;-63
2021/07/17 05:22:36;;;;;;;34.53;15.88;;;;;;;15.50;84.48;102033.69;5055195;28;20452;-62
2021/07/17 05:25:04;;;;;;;44.72;16.35;;;;;;;15.52;84.14;102036.16;5054742;28;20060;-62
2021/07/17 05:27:31;;;;;;;40.85;16.48;;;;;;;15.36;84.97;102026.53;5055156;28;20056;-62
2021/07/17 05:30:02;;;;;;;43.00;16.83;;;;;;;15.37;85.36;102026.22;5053086;28;20604;-62
2021/07/17 05:32:29;;;;;;;38.10;16.10;;;;;;;15.54;84.35;102020.00;5054398;28;20040;-63
2021/07/17 05:34:57;;;;;;;34.25;16.98;;;;;;;15.70;83.81;102035.16;5036253;28;20082;-62
2021/07/17 05:37:25;;;;;;;37.15;16.40;;;;;;;15.59;83.65;102034.56;5055036;28;20055;-62
2021/07/17 05:39:53;;;;;;;37.47;16.80;;;;;;;15.53;84.84;102023.91;5054553;28;20180;-61
2021/07/17 05:42:21;;;;;;;39.83;17.00;;;;;;;15.61;83.94;102026.75;5054994;28;20045;-62
2021/07/17 05:44:49;;;;;;;40.35;16.67;;;;;;;15.55;84.31;102028.00;5055028;28;20504;-63
2021/07/17 05:47:16;;;;;;;37.17;16.02;;;;;;;15.73;83.40;102021.44;5036803;28;20053;-62
2021/07/17 05:49:43;;;;;;;42.17;17.42;;;;;;;15.63;83.95;102027.28;5054584;28;20048;-63
2021/07/17 05:52:11;;;;;;;37.80;17.02;;;;;;;15.52;84.92;102016.69;5054917;28;20401;-63
2021/07/17 05:54:38;;;;;;;37.70;16.42;;;;;;;15.72;83.95;102010.66;5055269;28;20053;-63
2021/07/17 05:57:06;;;;;;;32.90;15.77;;;;;;;15.73;82.88;102020.63;5064424;28;20052;-63
2021/07/17 05:59:33;;;;;;;37.35;15.85;;;;;;;15.71;83.38;102018.16;5094605;28;20427;-63
2021/07/17 06:02:00;;;;;;;39.53;15.85;;;;;;;15.87;83.29;102023.31;5094475;28;20050;-63
2021/07/17 06:04:28;;;;;;;37.13;14.65;;;;;;;16.09;81.92;102031.66;5076249;28;20442;-62
2021/07/17 06:06:56;;;;;;;37.35;16.17;;;;;;;15.87;82.55;102028.88;5094459;28;20051;-64
2021/07/17 06:09:23;;;;;;;39.58;15.50;;;;;;;16.16;81.81;102027.25;5094426;28;20048;-63
2021/07/17 06:11:51;;;;;;;33.25;14.50;;;;;;;16.10;82.13;102022.16;5094326;28;20043;-63
2021/07/17 06:14:18;;;;;;;34.00;16.15;;;;;;;16.01;81.79;102026.84;5058637;28;20075;-63
2021/07/17 06:16:45;;;;;;;43.63;17.58;;;;;;;16.09;82.14;102031.66;5094225;28;20055;-62
2021/07/17 06:19:13;;;;;;;47.08;18.30;;;;;;;16.05;82.05;102020.34;5094183;28;20052;-62
2021/07/17 06:21:40;;;;;;;33.90;17.55;;;;;;;15.91;82.39;102030.72;5094283;28;20051;-63
2021/07/17 06:24:08;;;;;;;39.05;17.75;;;;;;;15.69;83.64;102036.31;5093877;28;20597;-63
2021/07/17 06:26:35;;;;;;;39.10;17.20;;;;;;;15.57;84.75;102036.84;5075945;28;20063;-63
2021/07/17 06:29:02;;;;;;;39.95;17.25;;;;;;;16.04;82.80;102034.56;5076347;28;20063;-63
2021/07/17 06:31:30;;;;;;;39.72;19.13;;;;;;;15.47;85.23;102034.31;5094251;28;20075;-64
2021/07/17 06:33:57;;;;;;;36.45;19.35;;;;;;;15.42;86.06;102044.72;5056835;28;20045;-63
2021/07/17 06:36:25;;;;;;;40.72;18.83;;;;;;;15.55;85.49;102046.66;5056096;28;20049;-62
2021/07/17 06:38:52;;;;;;;35.88;18.27;;;;;;;15.69;85.02;102050.19;5058133;28;20049;-63
2021/07/17 06:41:19;;;;;;;31.23;17.52;;;;;;;15.56;85.81;102054.66;5073851;28;20056;-63
2021/07/17 06:43:46;;;;;;;36.10;18.27;;;;;;;15.81;84.97;102044.88;5073604;28;20056;-63
2021/07/17 06:46:14;;;;;;;37.92;18.77;;;;;;;15.80;84.88;102048.78;5073611;28;20048;-62
2021/07/17 06:48:41;;;;;;;34.92;18.98;;;;;;;15.71;85.10;102047.88;5073338;28;20059;-64
2021/07/17 06:51:08;;;;;;;37.45;19.30;;;;;;;15.59;85.63;102047.63;5049664;28;20053;-64
2021/07/17 06:53:36;;;;;;;47.80;19.13;;;;;;;15.65;85.80;102054.72;5035842;28;20052;-63
2021/07/17 06:56:04;;;;;;;34.38;18.80;;;;;;;15.82;85.33;102056.78;5063853;28;20509;-63
2021/07/17 06:58:31;;;;;;;33.08;17.00;;;;;;;16.28;83.10;102060.03;5076211;28;20052;-63
2021/07/17 07:00:58;;;;;;;36.10;17.70;;;;;;;16.39;82.25;102051.09;5057108;28;20052;-62
2021/07/17 07:03:26;;;;;;;38.45;19.05;;;;;;;15.98;83.33;102047.78;5056355;28;20048;-63
2021/07/17 07:05:54;;;;;;;43.25;18.50;;;;;;;16.21;83.18;102060.50;5073223;28;20053;-62
2021/07/17 07:08:21;;;;;;;36.35;19.02;;;;;;;16.31;82.38;102060.22;5055462;28;20055;-63
2021/07/17 07:10:48;;;;;;;39.38;18.48;;;;;;;16.27;82.38;102052.81;5073415;28;20063;-63
2021/07/17 07:13:16;;;;;;;42.20;20.15;;;;;;;16.16;83.17;102060.63;5055520;28;20060;-63
2021/07/17 07:15:44;;;;;;;38.33;19.65;;;;;;;16.31;83.16;102051.88;5068579;28;20053;-63
2021/07/17 07:18:13;;;;;;;36.22;17.95;;;;;;;16.58;82.04;102046.13;5053087;28;20056;-62
2021/07/17 07:20:41;;;;;;;38.08;19.33;;;;;;;16.61;80.93;102050.25;5065557;28;20048;-63
2021/07/17 07:23:08;;;;;;;38.78;19.45;;;;;;;16.89;80.85;102058.03;5093448;28;20066;-63
2021/07/17 07:25:35;;;;;;;38.33;20.25;;;;;;;16.57;81.08;102057.59;5093929;28;20052;-63
2021/07/17 07:28:03;;;;;;;38.47;20.48;;;;;;;16.52;81.78;102066.09;5089038;28;20055;-63
2021/07/17 07:30:31;;;;;;;38.97;20.70;;;;;;;16.62;81.50;102065.78;5059453;28;20053;-64
2021/07/17 07:32:58;;;;;;;39.50;19.40;;;;;;;16.79;80.67;102076.97;5059226;28;20048;-63
2021/07/17 07:35:26;;;;;;;40.10;19.25;;;;;;;16.79;81.13;102075.03;5090913;28;20048;-63
2021/07/17 07:37:54;;;;;;;46.83;20.33;;;;;;;16.85;80.33;102081.25;5097533;28;20442;-63
2021/07/17 07:40:23;;;;;;;49.10;21.83;;;;;;;17.14;79.98;102077.91;5097858;28;20502;-62
2021/07/17 07:42:51;;;;;;;42.58;20.90;;;;;;;16.95;79.54;102077.34;5098153;28;20048;-64
2021/07/17 07:45:19;;;;;;;40.53;21.08;;;;;;;16.48;82.35;102074.25;5062609;28;20621;-62
2021/07/17 07:47:48;;;;;;;42.10;20.42;;;;;;;16.89;81.43;102079.50;5097279;28;20700;-63
2021/07/17 07:50:16;;;;;;;45.38;19.40;;;;;;;17.46;79.38;102077.47;5097428;28;20052;-62
2021/07/17 07:52:43;;;;;;;43.13;19.63;;;;;;;17.46;78.14;102083.88;5088689;28;20056;-63
2021/07/17 07:55:15;;;;;;;36.83;19.73;;;;;;;17.76;77.47;102090.44;5065362;28;20053;-63
2021/07/17 07:57:42;;;;;;;35.80;19.73;;;;;;;16.96;79.86;102085.41;5076307;28;20504;-63
2021/07/17 08:00:12;;;;;;;39.13;20.73;;;;;;;17.05;80.67;102086.22;5097014;28;20059;-63
2021/07/17 08:02:54;;;;;;;40.75;19.83;;;;;;;16.92;81.14;102089.97;5096898;28;20044;-63
2021/07/17 08:05:23;;;;;;;40.20;21.20;;;;;;;17.01;81.19;102092.78;5077123;28;20530;-62
2021/07/17 08:07:51;;;;;;;42.05;21.00;;;;;;;16.72;81.93;102094.16;5076997;28;20052;-63
2021/07/17 08:10:19;;;;;;;37.95;21.08;;;;;;;16.73;82.53;102087.47;5076654;28;20048;-63
2021/07/17 08:12:47;;;;;;;43.42;21.52;;;;;;;17.11;81.51;102098.88;5076701;28;20048;-63
2021/07/17 08:15:15;;;;;;;34.63;19.58;;;;;;;17.40;79.79;102103.84;5046442;28;20085;-63
2021/07/17 08:17:43;;;;;;;32.28;19.60;;;;;;;17.58;78.81;102108.31;5053718;28;20627;-61
2021/07/17 08:20:11;;;;;;;38.67;18.98;;;;;;;17.64;78.53;102087.50;5076246;28;20646;-62
2021/07/17 08:22:39;;;;;;;34.67;19.55;;;;;;;17.74;78.22;102079.63;5076500;28;20049;-62
2021/07/17 08:25:08;;;;;;;29.95;18.75;;;;;;;18.01;77.20;102075.66;5067215;28;20045;-63
2021/07/17 08:27:35;;;;;;;32.22;19.63;;;;;;;17.89;76.64;102081.91;5062602;28;20053;-62
2021/07/17 08:30:03;;;;;;;34.17;19.83;;;;;;;17.51;78.29;102078.16;5063040;28;20040;-61
2021/07/17 08:32:31;;;;;;;38.28;19.33;;;;;;;17.82;77.50;102075.19;5058915;28;20415;-62
2021/07/17 08:34:58;;;;;;;39.55;20.45;;;;;;;17.28;79.13;102082.19;5069673;28;20049;-62
2021/07/17 08:37:26;;;;;;;39.35;19.33;;;;;;;17.51;79.37;102078.16;5055432;28;20115;-61
2021/07/17 08:39:53;;;;;;;34.40;18.33;;;;;;;17.87;77.82;102077.81;5057900;28;20044;-63
2021/07/17 08:42:21;;;;;;;38.15;20.52;;;;;;;17.86;76.87;102082.56;5068370;28;20048;-62
2021/07/17 08:44:49;;;;;;;35.13;18.92;;;;;;;17.81;77.43;102082.75;5065744;28;20057;-62
2021/07/17 08:47:17;;;;;;;29.52;18.48;;;;;;;17.78;77.45;102075.03;5039129;28;20524;-61
2021/07/17 08:49:45;;;;;;;31.55;18.80;;;;;;;17.70;77.83;102078.66;5057256;28;20080;-61
2021/07/17 08:52:12;;;;;;;33.65;18.30;;;;;;;18.15;76.69;102089.44;5038085;28;20557;-62
2021/07/17 08:54:41;;;;;;;32.65;17.80;;;;;;;18.07;75.95;102082.72;5038138;28;20698;-64
2021/07/17 08:57:12;;;;;;;28.77;16.48;;;;;;;18.30;75.42;102081.34;5065852;28;20059;-62
2021/07/17 08:59:39;;;;;;;35.78;18.20;;;;;;;18.75;74.10;102084.50;5093965;28;20044;-61
2021/07/17 09:02:07;;;;;;;37.38;18.33;;;;;;;18.23;75.57;102077.44;5075526;28;20055;-63
2021/07/17 09:04:36;;;;;;;38.42;18.52;;;;;;;18.72;74.25;102082.38;5070831;28;20055;-62
2021/07/17 09:07:03;;;;;;;37.40;19.35;;;;;;;18.21;76.20;102085.31;5061599;28;20443;-62
2021/07/17 09:09:32;;;;;;;29.33;17.38;;;;;;;18.67;74.81;102085.38;5055592;28;20488;-62
2021/07/17 09:12:00;;;;;;;33.70;17.65;;;;;;;18.61;73.11;102079.13;5066619;28;20041;-62
2021/07/17 09:14:37;;;;;;;33.58;17.42;;;;;;;18.68;73.65;102085.03;5060563;28;20053;-62
2021/07/17 09:17:05;;;;;;;34.55;18.08;;;;;;;18.59;74.13;102066.66;5031079;28;20049;-63
2021/07/17 09:19:33;;;;;;;36.80;18.17;;;;;;;18.94;73.03;102062.56;5058253;28;20045;-64
2021/07/17 09:22:02;;;;;;;36.65;17.40;;;;;;;19.21;72.06;102072.41;5058350;28;20053;-65
2021/07/17 09:24:29;;;;;;;30.90;16.48;;;;;;;19.60;71.47;102064.41;5041996;28;20111;-45
2021/07/17 09:26:59;;;;;;;24.70;13.82;;;;;;;21.16;67.29;102054.75;5056114;28;20052;-41
2021/07/17 09:29:34;;;;;;;;;;;;;;;21.83;62.58;102051.19;5059244;28;20051;-42
2021/07/17 09:32:02;;;;;;;26.45;12.93;;;;;;;22.39;60.77;102049.94;5044878;28;19932;-40
2021/07/17 09:34:33;;;;;;;27.45;13.27;;;;;;;22.38;60.03;102047.50;5055955;28;20045;-41
2021/07/17 09:37:07;;;;;;;31.42;13.13;;;;;;;22.67;59.30;102049.88;5057435;28;20045;-40
2021/07/17 09:39:40;;;;;;;21.70;11.57;;;;;;;22.55;59.26;102038.75;5067910;28;20044;-40
2021/07/17 09:42:09;;;;;;;26.90;13.65;;;;;;;22.80;58.74;102048.63;5054988;28;20056;-43
2021/07/17 09:44:37;;;;;;;24.95;13.50;;;;;;;22.53;58.20;102041.06;5032695;28;20053;-40
2021/07/17 09:47:17;;;;;;;27.13;12.70;;;;;;;22.23;59.09;102040.69;5060637;28;20056;-40
2021/07/17 09:49:45;;;;;;;29.63;14.85;;;;;;;21.19;66.94;102040.84;5058717;28;20515;-41
2021/07/17 09:52:21;;;;;;;31.58;15.30;;;;;;;21.44;65.36;102038.81;5056672;28;20041;-41
2021/07/17 09:55:04;;;;;;;32.60;15.45;;;;;;;21.12;63.72;102034.19;5040664;28;20055;-40
2021/07/17 09:57:32;;;;;;;35.60;20.10;;;;;;;21.83;63.82;102032.38;5046328;28;20045;-40
2021/07/17 10:00:10;;;;;;;31.45;15.13;;;;;;;22.00;63.25;102034.84;5055043;28;20052;-39
2021/07/17 10:02:55;;;;;;;30.27;14.95;;;;;;;22.62;61.74;102041.72;5061116;28;20053;-39
2021/07/17 10:05:43;;;;;;;25.90;14.27;;;;;;;22.90;59.33;102034.84;5056587;28;21848;-39
2021/07/17 10:08:14;;;;;;;28.40;14.57;;;;;;;22.11;61.52;102037.94;5049197;28;20057;-40
2021/07/17 10:10:44;;;;;;;33.65;14.88;;;;;;;22.06;60.24;102032.59;5058421;28;20076;-39
2021/07/17 10:13:11;;;;;;;29.95;13.38;;;;;;;21.52;60.96;102035.03;5055125;28;20520;-40
2021/07/17 10:15:39;;;;;;;26.58;12.95;;;;;;;21.87;61.61;102030.50;5053857;28;20052;-40
2021/07/17 10:18:23;;;;;;;25.02;12.13;;;;;;;22.04;59.80;102041.38;5055290;28;20438;-41
2021/07/17 10:20:52;;;;;;;27.95;12.43;;;;;;;21.95;60.53;102037.13;5067052;28;20063;-40
2021/07/17 10:23:20;;;;;;;27.63;13.13;;;;;;;21.39;60.44;102041.88;5054596;28;20053;-41
2021/07/17 10:25:48;;;;;;;27.55;13.25;;;;;;;21.82;61.08;102027.13;5055624;28;20060;-38
2021/07/17 10:28:16;;;;;;;22.00;11.68;;;;;;;22.40;59.18;102039.53;5071670;28;20053;-39
2021/07/17 10:30:43;;;;;;;27.80;12.15;;;;;;;22.24;58.54;102036.72;5062581;28;20055;-40
2021/07/17 10:33:10;;;;;;;27.30;12.35;;;;;;;22.43;58.73;102036.00;5080598;28;20048;-40
2021/07/17 10:35:38;;;;;;;39.00;13.13;;;;;;;22.58;58.21;102040.84;5061056;28;20044;-40
2021/07/17 10:38:09;;;;;;;25.75;11.88;;;;;;;22.40;58.37;102037.56;5063679;28;20056;-39
2021/07/17 10:40:38;;;;;;;27.70;11.85;;;;;;;22.64;57.76;102040.22;5061580;28;20085;-41
2021/07/17 10:43:06;;;;;;;27.45;11.77;;;;;;;22.73;57.04;102037.22;5064232;28;20051;-40
2021/07/17 10:45:44;;;;;;;26.23;11.68;;;;;;;22.83;56.40;102034.66;5046159;28;20578;-41
2021/07/17 10:48:24;;;;;;;24.63;11.43;;;;;;;22.84;56.29;102035.47;5081835;28;20052;-41
2021/07/17 10:50:53;;;;;;;28.88;11.07;;;;;;;23.06;55.79;102030.00;5080673;28;20062;-40
2021/07/17 10:53:40;;;;;;;24.02;12.23;;;;;;;22.78;56.39;102034.13;5081630;28;20052;-39
2021/07/17 10:56:29;;;;;;;20.83;10.68;;;;;;;23.11;55.32;102026.91;5062001;28;20571;-39
2021/07/17 10:58:58;;;;;;;29.63;12.93;;;;;;;22.49;57.00;102029.75;5063513;28;20056;-47
2021/07/17 11:01:27;;;;;;;27.27;12.68;;;;;;;22.06;58.63;102027.81;5080389;28;20052;-50
2021/07/17 11:03:55;;;;;;;22.23;13.00;;;;;;;21.83;58.79;102014.72;5080322;28;20549;-41
2021/07/17 11:06:27;;;;;;;24.30;12.75;;;;;;;22.43;57.86;102019.97;5062975;28;20051;-60
2021/07/17 11:08:56;;;;;;;26.45;11.57;;;;;;;22.86;56.69;102011.44;5080375;28;20446;-41
2021/07/17 11:11:36;;;;;;;26.17;12.15;;;;;;;22.78;56.54;102020.06;5062860;28;20043;-41
2021/07/17 11:14:07;;;;;;;21.05;12.20;;;;;;;22.85;56.03;102015.44;5080791;28;20076;-40
2021/07/17 11:16:45;;;;;;;23.45;12.15;;;;;;;22.93;56.34;102010.78;5081311;28;20044;-41